createdAt,value
2023-06-23T00:00:35.361Z,1009.73
2023-06-23T00:01:35.447Z,1009.74
2023-06-23T00:02:35.405Z,1009.75
2023-06-23T00:03:35.380Z,1009.68
2023-06-23T00:04:35.341Z,1009.69
2023-06-23T00:05:35.478Z,1009.74
2023-06-23T00:06:35.324Z,1009.80
2023-06-23T00:07:35.309Z,1009.80
2023-06-23T00:08:35.363Z,1009.87
2023-06-23T00:09:35.301Z,1009.83
2023-06-23T00:10:35.237Z,1009.86
2023-06-23T00:11:35.287Z,1009.79
2023-06-23T00:12:35.237Z,1009.92
2023-06-23T00:13:35.202Z,1009.84
2023-06-23T00:14:35.222Z,1009.93
2023-06-23T00:15:35.280Z,1009.95
2023-06-23T00:16:35.206Z,1009.99
2023-06-23T00:17:35.212Z,1009.96
2023-06-23T00:18:35.196Z,1010.02
2023-06-23T00:19:35.146Z,1010.01
2023-06-23T00:20:35.167Z,1010.01
2023-06-23T00:21:35.160Z,1010.00
2023-06-23T00:22:35.181Z,1010.04
2023-06-23T00:23:35.125Z,1010.08
2023-06-23T00:24:35.242Z,1010.09
2023-06-23T00:25:35.278Z,1010.10
2023-06-23T00:26:35.131Z,1010.12
2023-06-23T00:27:35.062Z,1010.14
2023-06-23T00:28:35.138Z,1010.15
2023-06-23T00:29:35.070Z,1010.16
2023-06-23T00:30:35.112Z,1010.14
2023-06-23T00:31:35.088Z,1010.16
2023-06-23T00:32:35.081Z,1010.20
2023-06-23T00:33:35.229Z,1010.27
2023-06-23T00:34:34.999Z,1010.26
2023-06-23T00:35:34.978Z,1010.33
2023-06-23T00:36:34.981Z,1010.32
2023-06-23T00:37:34.957Z,1010.40
2023-06-23T00:38:34.975Z,1010.44
2023-06-23T00:39:34.901Z,1010.47
2023-06-23T00:40:34.926Z,1010.47
2023-06-23T00:41:35.145Z,1010.52
2023-06-23T00:42:34.931Z,1010.62
2023-06-23T00:43:34.896Z,1010.59
2023-06-23T00:44:34.896Z,1010.61
2023-06-23T00:45:35.133Z,1010.63
2023-06-23T00:46:34.882Z,1010.67
2023-06-23T00:47:34.846Z,1010.70
2023-06-23T00:48:34.887Z,1010.71
2023-06-23T00:49:34.848Z,1010.73
2023-06-23T00:50:34.830Z,1010.75
2023-06-23T00:51:34.927Z,1010.80
2023-06-23T00:52:34.777Z,1010.81
2023-06-23T00:53:34.834Z,1010.82
2023-06-23T00:54:34.788Z,1010.85
2023-06-23T00:55:35.011Z,1010.89
2023-06-23T00:56:35.025Z,1010.95
2023-06-23T00:57:34.756Z,1010.95
2023-06-23T00:58:34.776Z,1010.98
2023-06-23T00:59:35.277Z,1011.01
2023-06-23T01:00:34.841Z,1010.97
2023-06-23T01:01:35.534Z,1010.96
2023-06-23T01:02:34.734Z,1010.98
2023-06-23T01:03:34.874Z,1011.01
2023-06-23T01:04:34.868Z,1010.99
2023-06-23T01:05:35.021Z,1011.00
2023-06-23T01:06:34.674Z,1011.01
2023-06-23T01:07:34.699Z,1011.00
2023-06-23T01:08:34.653Z,1011.02
2023-06-23T01:09:34.657Z,1011.05
2023-06-23T01:10:34.637Z,1011.01
2023-06-23T01:11:34.648Z,1011.11
2023-06-23T01:12:34.614Z,1011.05
2023-06-23T01:13:34.599Z,1011.07
2023-06-23T01:14:34.619Z,1011.10
2023-06-23T01:15:34.840Z,1011.06
2023-06-23T01:16:34.743Z,1011.08
2023-06-23T01:17:34.700Z,1011.06
2023-06-23T01:18:34.687Z,1011.05
2023-06-23T01:19:34.620Z,1011.04
2023-06-23T01:20:34.571Z,1011.15
2023-06-23T01:21:34.784Z,1011.14
2023-06-23T01:22:34.540Z,1011.14
2023-06-23T01:23:34.912Z,1011.18
2023-06-23T01:24:35.042Z,1011.20
2023-06-23T01:25:34.946Z,1011.25
2023-06-23T01:26:34.471Z,1011.28
2023-06-23T01:27:34.664Z,1011.30
2023-06-23T01:28:34.614Z,1011.36
2023-06-23T01:29:35.034Z,1011.39
2023-06-23T01:30:34.703Z,1011.39
2023-06-23T01:31:34.483Z,1011.39
2023-06-23T01:32:34.712Z,1011.40
2023-06-23T01:33:34.511Z,1011.41
2023-06-23T01:34:34.544Z,1011.41
2023-06-23T01:35:34.760Z,1011.48
2023-06-23T01:36:35.088Z,1011.50
2023-06-23T01:37:34.761Z,1011.48
2023-06-23T01:40:05.525Z,1011.54
2023-06-23T01:41:06.396Z,1011.49
2023-06-23T01:42:07.082Z,1011.53
2023-06-23T01:43:06.200Z,1011.51
2023-06-23T01:44:06.298Z,1011.57
2023-06-23T01:45:06.266Z,1011.56
2023-06-23T01:46:07.072Z,1011.57
2023-06-23T01:47:06.207Z,1011.58
2023-06-23T01:48:06.227Z,1011.64
2023-06-23T01:49:06.199Z,1011.61
2023-06-23T01:50:06.357Z,1011.65
2023-06-23T01:51:06.539Z,1011.65
2023-06-23T01:52:06.393Z,1011.70
2023-06-23T01:53:07.111Z,1011.70
2023-06-23T01:54:06.436Z,1011.72
2023-06-23T01:55:11.530Z,1011.74
2023-06-23T01:56:10.301Z,1011.69
2023-06-23T01:57:06.030Z,1011.68
2023-06-23T01:58:06.163Z,1011.67
2023-06-23T01:59:05.984Z,1011.71
2023-06-23T02:00:06.400Z,1011.69
2023-06-23T02:01:06.431Z,1011.72
2023-06-23T02:02:05.982Z,1011.78
2023-06-23T02:03:06.685Z,1011.74
2023-06-23T02:04:06.704Z,1011.76
2023-06-23T02:05:06.209Z,1011.80
2023-06-23T02:07:37.443Z,1011.76
2023-06-23T02:08:41.285Z,1011.77
2023-06-23T02:09:35.624Z,1011.78
2023-06-23T02:10:49.316Z,1011.81
2023-06-23T02:11:36.709Z,1011.85
2023-06-23T02:12:34.527Z,1011.86
2023-06-23T02:13:34.310Z,1011.89
2023-06-23T02:14:43.853Z,1011.89
2023-06-23T02:15:50.206Z,1011.87
2023-06-23T02:16:34.669Z,1011.93
2023-06-23T02:17:35.037Z,1011.95
2023-06-23T02:18:35.061Z,1011.94
2023-06-23T02:21:46.575Z,1012.02
2023-06-23T02:21:53.228Z,1012.08
2023-06-23T02:23:00.083Z,1012.11
2023-06-23T02:23:53.705Z,1012.14
2023-06-23T02:25:25.400Z,1012.17
2023-06-23T02:26:01.563Z,1012.19
2023-06-23T02:27:19.947Z,1012.20
2023-06-23T02:27:54.627Z,1012.26
2023-06-23T02:28:54.520Z,1012.27
2023-06-23T02:31:31.413Z,1012.33
2023-06-23T02:33:48.286Z,1012.35
2023-06-23T02:34:29.423Z,1012.39
2023-06-23T02:36:35.820Z,1012.46
2023-06-23T02:37:51.278Z,1012.48
2023-06-23T02:40:26.727Z,1012.49
2023-06-23T02:40:34.679Z,1012.51
2023-06-23T02:41:36.915Z,1012.55
2023-06-23T02:42:33.465Z,1012.57
2023-06-23T02:43:34.400Z,1012.59
2023-06-23T02:44:53.074Z,1012.61
2023-06-23T02:46:57.326Z,1012.63
2023-06-23T02:47:51.396Z,1012.66
2023-06-23T02:48:52.320Z,1012.66
2023-06-23T02:50:01.800Z,1012.70
2023-06-23T02:50:50.262Z,1012.73
2023-06-23T02:51:51.789Z,1012.74
2023-06-23T02:52:50.044Z,1012.73
2023-06-23T02:53:54.608Z,1012.76
2023-06-23T02:54:50.340Z,1012.76
2023-06-23T02:55:50.638Z,1012.76
2023-06-23T02:56:50.481Z,1012.81
2023-06-23T02:57:50.873Z,1012.81
2023-06-23T02:58:50.438Z,1012.82
2023-06-23T02:59:50.108Z,1012.84
2023-06-23T03:00:50.445Z,1012.85
2023-06-23T03:01:49.984Z,1012.86
2023-06-23T03:02:50.069Z,1012.90
2023-06-23T03:03:50.181Z,1012.91
2023-06-23T03:04:50.051Z,1012.94
2023-06-23T03:05:50.696Z,1012.93
2023-06-23T03:06:52.435Z,1012.91
2023-06-23T03:07:50.163Z,1012.91
2023-06-23T03:08:50.385Z,1012.96
2023-06-23T03:09:50.020Z,1012.97
2023-06-23T03:10:49.760Z,1012.95
2023-06-23T03:11:50.152Z,1012.96
2023-06-23T03:12:49.932Z,1012.97
2023-06-23T03:13:49.861Z,1012.98
2023-06-23T03:14:50.438Z,1012.99
2023-06-23T03:15:50.861Z,1013.03
2023-06-23T03:16:50.273Z,1013.03
2023-06-23T03:17:49.847Z,1013.04
2023-06-23T03:18:50.628Z,1013.05
2023-06-23T03:19:49.956Z,1013.08
2023-06-23T03:20:49.897Z,1013.10
2023-06-23T03:21:49.716Z,1013.13
2023-06-23T03:22:49.684Z,1013.15
2023-06-23T03:23:49.776Z,1013.18
2023-06-23T03:24:50.175Z,1013.18
2023-06-23T03:25:49.742Z,1013.17
2023-06-23T03:26:49.649Z,1013.18
2023-06-23T03:27:49.613Z,1013.20
2023-06-23T03:28:49.865Z,1013.20
2023-06-23T03:29:49.661Z,1013.22
2023-06-23T03:30:50.295Z,1013.26
2023-06-23T03:31:49.818Z,1013.27
2023-06-23T03:32:49.722Z,1013.30
2023-06-23T03:33:49.620Z,1013.33
2023-06-23T03:34:49.582Z,1013.34
2023-06-23T03:35:49.597Z,1013.34
2023-06-23T03:36:49.733Z,1013.41
2023-06-23T03:37:49.707Z,1013.43
2023-06-23T03:38:49.638Z,1013.48
2023-06-23T03:39:49.663Z,1013.48
2023-06-23T03:40:53.557Z,1013.50
2023-06-23T03:41:50.168Z,1013.51
2023-06-23T03:42:49.525Z,1013.55
2023-06-23T03:43:49.693Z,1013.58
2023-06-23T03:44:49.955Z,1013.62
2023-06-23T03:45:49.660Z,1013.62
2023-06-23T03:46:51.368Z,1013.64
2023-06-23T03:47:49.920Z,1013.65
2023-06-23T03:48:49.733Z,1013.67
2023-06-23T03:49:49.612Z,1013.70
2023-06-23T03:50:49.618Z,1013.71
2023-06-23T03:51:49.908Z,1013.74
2023-06-23T03:52:50.794Z,1013.75
2023-06-23T03:53:49.541Z,1013.75
2023-06-23T03:54:49.617Z,1013.76
2023-06-23T03:55:49.508Z,1013.76
2023-06-23T03:56:50.464Z,1013.79
2023-06-23T03:57:50.369Z,1013.82
2023-06-23T04:00:17.886Z,1013.85
2023-06-23T04:01:19.461Z,1013.87
2023-06-23T04:02:18.163Z,1013.89
2023-06-23T04:03:18.160Z,1013.90
2023-06-23T04:04:18.298Z,1013.91
2023-06-23T04:05:18.675Z,1013.91
2023-06-23T04:06:18.353Z,1013.92
2023-06-23T04:07:19.250Z,1013.92
2023-06-23T04:08:18.062Z,1013.93
2023-06-23T04:09:18.147Z,1013.93
2023-06-23T04:10:18.145Z,1013.95
2023-06-23T04:11:18.033Z,1013.95
2023-06-23T04:12:18.035Z,1013.97
2023-06-23T04:13:18.118Z,1013.96
2023-06-23T04:14:18.312Z,1013.97
2023-06-23T04:15:17.992Z,1013.98
2023-06-23T04:16:18.013Z,1013.97
2023-06-23T04:17:18.176Z,1014.02
2023-06-23T04:18:18.046Z,1014.03
2023-06-23T04:19:17.907Z,1014.05
2023-06-23T04:20:17.938Z,1014.05
2023-06-23T04:21:17.910Z,1014.07
2023-06-23T04:22:17.933Z,1014.09
2023-06-23T04:23:17.893Z,1014.12
2023-06-23T04:24:17.897Z,1014.12
2023-06-23T04:25:19.056Z,1014.13
2023-06-23T04:26:17.945Z,1014.17
2023-06-23T04:27:17.844Z,1014.18
2023-06-23T04:28:17.882Z,1014.19
2023-06-23T04:29:17.883Z,1014.22
2023-06-23T04:30:17.920Z,1014.23
2023-06-23T04:31:17.865Z,1014.22
2023-06-23T04:32:17.889Z,1014.22
2023-06-23T04:33:17.758Z,1014.25
2023-06-23T04:34:17.768Z,1014.26
2023-06-23T04:35:17.800Z,1014.28
2023-06-23T04:36:17.773Z,1014.30
2023-06-23T04:37:17.990Z,1014.31
2023-06-23T04:38:18.004Z,1014.33
2023-06-23T04:39:17.689Z,1014.34
2023-06-23T04:40:17.876Z,1014.37
2023-06-23T04:41:17.718Z,1014.39
2023-06-23T04:42:17.685Z,1014.41
2023-06-23T04:43:17.800Z,1014.41
2023-06-23T04:44:17.754Z,1014.42
2023-06-23T04:45:17.659Z,1014.43
2023-06-23T04:46:17.704Z,1014.45
2023-06-23T04:47:17.632Z,1014.46
2023-06-23T04:48:17.606Z,1014.49
2023-06-23T04:49:17.607Z,1014.49
2023-06-23T04:50:17.988Z,1014.49
2023-06-23T04:51:17.603Z,1014.48
2023-06-23T04:52:17.633Z,1014.49
2023-06-23T04:53:17.582Z,1014.49
2023-06-23T04:54:17.570Z,1014.50
2023-06-23T04:55:17.573Z,1014.52
2023-06-23T04:56:17.530Z,1014.54
2023-06-23T04:57:17.574Z,1014.58
2023-06-23T04:58:17.544Z,1014.59
2023-06-23T04:59:17.472Z,1014.61
2023-06-23T05:00:17.512Z,1014.62
2023-06-23T05:01:17.533Z,1014.63
2023-06-23T05:02:17.539Z,1014.65
2023-06-23T05:03:17.634Z,1014.67
2023-06-23T05:04:17.617Z,1014.68
2023-06-23T05:05:17.483Z,1014.68
2023-06-23T05:06:17.454Z,1014.71
2023-06-23T05:07:17.458Z,1014.70
2023-06-23T05:08:17.430Z,1014.73
2023-06-23T05:09:17.415Z,1014.73
2023-06-23T05:10:17.419Z,1014.74
2023-06-23T05:11:17.346Z,1014.75
2023-06-23T05:12:17.390Z,1014.76
2023-06-23T05:13:17.325Z,1014.77
2023-06-23T05:14:17.328Z,1014.79
2023-06-23T05:15:17.361Z,1014.82
2023-06-23T05:16:17.386Z,1014.83
2023-06-23T05:17:17.384Z,1014.85
2023-06-23T05:18:17.372Z,1014.84
2023-06-23T05:19:17.332Z,1014.86
2023-06-23T05:20:17.301Z,1014.87
2023-06-23T05:21:17.278Z,1014.87
2023-06-23T05:22:17.313Z,1014.88
2023-06-23T05:23:17.325Z,1014.89
2023-06-23T05:24:17.241Z,1014.91
2023-06-23T05:25:17.288Z,1014.94
2023-06-23T05:26:17.224Z,1014.97
2023-06-23T05:27:17.232Z,1014.99
2023-06-23T05:28:17.238Z,1015.00
2023-06-23T05:29:17.286Z,1014.99
2023-06-23T05:30:17.224Z,1014.98
2023-06-23T05:31:17.198Z,1015.00
2023-06-23T05:32:17.194Z,1015.02
2023-06-23T05:33:17.132Z,1015.03
2023-06-23T05:34:17.144Z,1015.05
2023-06-23T05:35:17.238Z,1015.09
2023-06-23T05:36:17.201Z,1015.09
2023-06-23T05:37:17.155Z,1015.10
2023-06-23T05:38:17.205Z,1015.12
2023-06-23T05:39:17.113Z,1015.13
2023-06-23T05:40:17.058Z,1015.16
2023-06-23T05:41:17.058Z,1015.17
2023-06-23T05:42:17.055Z,1015.20
2023-06-23T05:43:17.149Z,1015.23
2023-06-23T05:44:17.050Z,1015.26
2023-06-23T05:45:17.084Z,1015.27
2023-06-23T05:46:17.085Z,1015.29
2023-06-23T05:47:17.180Z,1015.30
2023-06-23T05:48:17.041Z,1015.31
2023-06-23T05:49:16.971Z,1015.30
2023-06-23T05:50:16.971Z,1015.27
2023-06-23T05:51:16.982Z,1015.28
2023-06-23T05:52:17.029Z,1015.27
2023-06-23T05:53:16.961Z,1015.26
2023-06-23T05:54:16.908Z,1015.28
2023-06-23T05:55:17.534Z,1015.28
2023-06-23T05:56:16.877Z,1015.30
2023-06-23T05:57:16.910Z,1015.31
2023-06-23T05:58:16.933Z,1015.32
2023-06-23T05:59:16.840Z,1015.32
2023-06-23T06:00:16.855Z,1015.33
2023-06-23T06:01:16.939Z,1015.34
2023-06-23T06:02:16.838Z,1015.37
2023-06-23T06:03:16.955Z,1015.38
2023-06-23T06:04:16.819Z,1015.39
2023-06-23T06:05:16.829Z,1015.40
2023-06-23T06:06:16.841Z,1015.42
2023-06-23T06:07:16.809Z,1015.41
2023-06-23T06:08:16.788Z,1015.43
2023-06-23T06:09:16.829Z,1015.43
2023-06-23T06:10:16.773Z,1015.46
2023-06-23T06:11:16.758Z,1015.47
2023-06-23T06:12:16.837Z,1015.48
2023-06-23T06:13:16.920Z,1015.51
2023-06-23T06:14:16.720Z,1015.53
2023-06-23T06:15:16.763Z,1015.54
2023-06-23T06:16:16.701Z,1015.56
2023-06-23T06:17:16.709Z,1015.58
2023-06-23T06:18:16.689Z,1015.59
2023-06-23T06:19:16.688Z,1015.58
2023-06-23T06:20:16.679Z,1015.57
2023-06-23T06:21:16.754Z,1015.57
2023-06-23T06:22:16.647Z,1015.58
2023-06-23T06:23:25.490Z,1015.59
2023-06-23T06:24:16.617Z,1015.61
2023-06-23T06:25:16.610Z,1015.63
2023-06-23T06:26:16.638Z,1015.65
2023-06-23T06:27:16.605Z,1015.66
2023-06-23T06:28:16.625Z,1015.67
2023-06-23T06:29:16.586Z,1015.69
2023-06-23T06:30:16.610Z,1015.71
2023-06-23T06:31:16.607Z,1015.76
2023-06-23T06:32:16.582Z,1015.81
2023-06-23T06:33:16.563Z,1015.83
2023-06-23T06:34:16.569Z,1015.83
2023-06-23T06:35:16.549Z,1015.85
2023-06-23T06:36:16.724Z,1015.89
2023-06-23T06:37:16.478Z,1015.89
2023-06-23T06:38:16.493Z,1015.91
2023-06-23T06:39:16.462Z,1015.94
2023-06-23T06:40:16.567Z,1015.98
2023-06-23T06:41:16.498Z,1015.97
2023-06-23T06:42:16.598Z,1015.98
2023-06-23T06:43:16.673Z,1015.99
2023-06-23T06:44:16.466Z,1016.00
2023-06-23T06:45:16.477Z,1015.98
2023-06-23T06:46:16.451Z,1016.00
2023-06-23T06:47:16.518Z,1016.01
2023-06-23T06:48:16.420Z,1016.02
2023-06-23T06:49:16.554Z,1016.03
2023-06-23T06:50:16.360Z,1016.04
2023-06-23T06:51:16.421Z,1016.04
2023-06-23T06:52:16.432Z,1016.05
2023-06-23T06:53:16.431Z,1016.08
2023-06-23T06:54:18.202Z,1016.11
2023-06-23T06:55:16.362Z,1016.12
2023-06-23T06:56:16.614Z,1016.13
2023-06-23T06:57:16.430Z,1016.16
2023-06-23T06:58:16.361Z,1016.18
2023-06-23T06:59:16.289Z,1016.19
2023-06-23T07:00:16.300Z,1016.22
2023-06-23T07:01:16.334Z,1016.24
2023-06-23T07:02:16.236Z,1016.23
2023-06-23T07:03:16.452Z,1016.24
2023-06-23T07:04:16.214Z,1016.24
2023-06-23T07:05:16.226Z,1016.24
2023-06-23T07:06:16.264Z,1016.26
2023-06-23T07:07:16.340Z,1016.28
2023-06-23T07:08:16.482Z,1016.29
2023-06-23T07:09:16.328Z,1016.30
2023-06-23T07:10:16.167Z,1016.30
2023-06-23T07:11:16.388Z,1016.29
2023-06-23T07:12:16.470Z,1016.31
2023-06-23T07:13:21.841Z,1016.35
2023-06-23T07:14:16.248Z,1016.32
2023-06-23T07:15:32.720Z,1016.32
2023-06-23T07:16:16.314Z,1016.31
2023-06-23T07:17:16.733Z,1016.32
2023-06-23T07:18:16.053Z,1016.34
2023-06-23T07:19:16.107Z,1016.33
2023-06-23T07:20:16.111Z,1016.34
2023-06-23T07:21:16.042Z,1016.35
2023-06-23T07:22:16.081Z,1016.36
2023-06-23T07:23:16.000Z,1016.38
2023-06-23T07:24:16.050Z,1016.39
2023-06-23T07:25:16.243Z,1016.39
2023-06-23T07:26:16.063Z,1016.40
2023-06-23T07:27:16.035Z,1016.44
2023-06-23T07:28:16.154Z,1016.47
2023-06-23T07:29:15.931Z,1016.50
2023-06-23T07:30:16.041Z,1016.51
2023-06-23T07:31:16.011Z,1016.51
2023-06-23T07:32:16.028Z,1016.51
2023-06-23T07:33:16.704Z,1016.54
2023-06-23T07:34:16.345Z,1016.55
2023-06-23T07:35:15.908Z,1016.57
2023-06-23T07:36:16.542Z,1016.59
2023-06-23T07:37:15.941Z,1016.59
2023-06-23T07:38:16.179Z,1016.60
2023-06-23T07:39:15.866Z,1016.58
2023-06-23T07:40:15.866Z,1016.61
2023-06-23T07:41:15.894Z,1016.60
2023-06-23T07:42:15.841Z,1016.60
2023-06-23T07:43:16.115Z,1016.60
2023-06-23T07:44:15.896Z,1016.61
2023-06-23T07:45:15.806Z,1016.61
2023-06-23T07:46:16.228Z,1016.60
2023-06-23T07:47:16.120Z,1016.60
2023-06-23T07:48:15.959Z,1016.61
2023-06-23T07:49:15.860Z,1016.61
2023-06-23T07:50:15.734Z,1016.63
2023-06-23T07:51:15.704Z,1016.66
2023-06-23T07:52:15.786Z,1016.67
2023-06-23T07:53:16.080Z,1016.69
2023-06-23T07:54:15.702Z,1016.70
2023-06-23T07:55:16.688Z,1016.71
2023-06-23T07:56:16.855Z,1016.71
2023-06-23T07:57:15.907Z,1016.71
2023-06-23T07:58:16.237Z,1016.71
2023-06-23T07:59:39.405Z,1016.72
2023-06-23T08:00:16.859Z,1016.72
2023-06-23T08:01:15.753Z,1016.75
2023-06-23T08:02:15.650Z,1016.77
2023-06-23T08:03:16.256Z,1016.79
2023-06-23T08:04:16.291Z,1016.78
2023-06-23T08:05:17.844Z,1016.80
2023-06-23T08:06:15.813Z,1016.81
2023-06-23T08:07:15.670Z,1016.82
2023-06-23T08:08:16.224Z,1016.82
2023-06-23T08:09:15.829Z,1016.82
2023-06-23T08:10:15.667Z,1016.82
2023-06-23T08:11:15.762Z,1016.81
2023-06-23T08:12:16.047Z,1016.82
2023-06-23T08:13:15.630Z,1016.81
2023-06-23T08:14:15.762Z,1016.82
2023-06-23T08:15:16.242Z,1016.82
2023-06-23T08:16:15.813Z,1016.82
2023-06-23T08:17:15.572Z,1016.82
2023-06-23T08:18:15.680Z,1016.82
2023-06-23T08:19:15.511Z,1016.83
2023-06-23T08:20:15.570Z,1016.83
2023-06-23T08:21:15.641Z,1016.85
2023-06-23T08:22:15.589Z,1016.86
2023-06-23T08:23:15.552Z,1016.86
2023-06-23T08:24:15.764Z,1016.87
2023-06-23T08:25:15.520Z,1016.88
2023-06-23T08:26:15.471Z,1016.88
2023-06-23T08:27:15.615Z,1016.91
2023-06-23T08:28:15.761Z,1016.93
2023-06-23T08:29:16.219Z,1016.94
2023-06-23T08:30:17.108Z,1016.97
2023-06-23T08:31:16.020Z,1016.96
2023-06-23T08:32:16.829Z,1016.97
2023-06-23T08:33:16.282Z,1016.99
2023-06-23T08:34:16.112Z,1017.00
2023-06-23T08:35:15.718Z,1017.01
2023-06-23T08:36:16.386Z,1017.02
2023-06-23T08:37:15.909Z,1017.02
2023-06-23T08:38:16.181Z,1017.02
2023-06-23T08:39:16.226Z,1017.04
2023-06-23T08:40:15.743Z,1017.06
2023-06-23T08:41:17.059Z,1017.09
2023-06-23T08:42:15.669Z,1017.10
2023-06-23T08:43:15.888Z,1017.12
2023-06-23T08:44:15.217Z,1017.13
2023-06-23T08:45:16.413Z,1017.11
2023-06-23T08:46:16.169Z,1017.12
2023-06-23T08:47:15.221Z,1017.13
2023-06-23T08:48:15.294Z,1017.14
2023-06-23T08:49:16.237Z,1017.13
2023-06-23T08:50:17.069Z,1017.16
2023-06-23T08:51:15.804Z,1017.18
2023-06-23T08:52:15.328Z,1017.25
2023-06-23T08:53:15.170Z,1017.25
2023-06-23T08:54:16.413Z,1017.25
2023-06-23T08:55:15.153Z,1017.27
2023-06-23T08:56:15.342Z,1017.29
2023-06-23T08:57:15.479Z,1017.30
2023-06-23T08:58:15.393Z,1017.27
2023-06-23T08:59:15.122Z,1017.27
2023-06-23T09:00:15.455Z,1017.25
2023-06-23T09:01:15.383Z,1017.27
2023-06-23T09:02:15.050Z,1017.28
2023-06-23T09:03:15.092Z,1017.31
2023-06-23T09:04:15.152Z,1017.32
2023-06-23T09:05:15.032Z,1017.33
2023-06-23T09:06:14.962Z,1017.33
2023-06-23T09:07:14.962Z,1017.35
2023-06-23T09:08:14.949Z,1017.34
2023-06-23T09:09:22.543Z,1017.34
2023-06-23T09:10:32.085Z,1017.35
2023-06-23T09:11:15.095Z,1017.34
2023-06-23T09:12:15.029Z,1017.33
2023-06-23T09:13:14.991Z,1017.36
2023-06-23T09:14:14.878Z,1017.39
2023-06-23T09:15:14.915Z,1017.40
2023-06-23T09:16:14.990Z,1017.44
2023-06-23T09:17:14.940Z,1017.44
2023-06-23T09:18:14.992Z,1017.45
2023-06-23T09:19:15.933Z,1017.46
2023-06-23T09:20:14.846Z,1017.48
2023-06-23T09:21:14.933Z,1017.48
2023-06-23T09:22:14.912Z,1017.52
2023-06-23T09:23:14.867Z,1017.52
2023-06-23T09:24:15.219Z,1017.53
2023-06-23T09:25:14.900Z,1017.52
2023-06-23T09:26:14.924Z,1017.52
2023-06-23T09:27:14.811Z,1017.52
2023-06-23T09:28:14.892Z,1017.53
2023-06-23T09:29:15.025Z,1017.54
2023-06-23T09:30:14.805Z,1017.55
2023-06-23T09:31:15.628Z,1017.56
2023-06-23T09:32:14.954Z,1017.57
2023-06-23T09:33:14.737Z,1017.58
2023-06-23T09:34:14.772Z,1017.58
2023-06-23T09:35:16.608Z,1017.56
2023-06-23T09:36:14.802Z,1017.59
2023-06-23T09:37:14.673Z,1017.56
2023-06-23T09:38:14.703Z,1017.57
2023-06-23T09:39:14.777Z,1017.60
2023-06-23T09:40:14.811Z,1017.62
2023-06-23T09:41:14.763Z,1017.64
2023-06-23T09:42:14.789Z,1017.65
2023-06-23T09:43:14.606Z,1017.63
2023-06-23T09:44:15.154Z,1017.63
2023-06-23T09:45:14.641Z,1017.63
2023-06-23T09:46:14.832Z,1017.62
2023-06-23T09:47:14.754Z,1017.61
2023-06-23T09:48:14.846Z,1017.60
2023-06-23T09:49:14.840Z,1017.60
2023-06-23T09:50:15.417Z,1017.60
2023-06-23T09:51:16.392Z,1017.63
2023-06-23T09:52:14.531Z,1017.64
2023-06-23T09:53:14.725Z,1017.65
2023-06-23T09:54:14.525Z,1017.67
2023-06-23T09:55:14.517Z,1017.70
2023-06-23T09:56:14.464Z,1017.71
2023-06-23T09:57:14.521Z,1017.70
2023-06-23T09:58:14.462Z,1017.71
2023-06-23T09:59:14.730Z,1017.72
2023-06-23T10:00:14.546Z,1017.73
2023-06-23T10:01:14.462Z,1017.72
2023-06-23T10:02:14.447Z,1017.72
2023-06-23T10:03:14.483Z,1017.71
2023-06-23T10:04:14.650Z,1017.72
2023-06-23T10:05:23.909Z,1017.72
2023-06-23T10:06:14.363Z,1017.76
2023-06-23T10:07:14.329Z,1017.80
2023-06-23T10:08:14.399Z,1017.82
2023-06-23T10:09:14.303Z,1017.80
2023-06-23T10:10:21.439Z,1017.82
2023-06-23T10:11:14.371Z,1017.80
2023-06-23T10:12:14.284Z,1017.82
2023-06-23T10:13:14.254Z,1017.84
2023-06-23T10:14:14.521Z,1017.79
2023-06-23T10:15:14.308Z,1017.79
2023-06-23T10:16:14.723Z,1017.79
2023-06-23T10:17:14.806Z,1017.80
2023-06-23T10:18:14.556Z,1017.81
2023-06-23T10:19:14.224Z,1017.81
2023-06-23T10:20:14.328Z,1017.82
2023-06-23T10:21:14.287Z,1017.82
2023-06-23T10:22:14.226Z,1017.81
2023-06-23T10:23:14.264Z,1017.84
2023-06-23T10:24:14.267Z,1017.83
2023-06-23T10:25:14.129Z,1017.83
2023-06-23T10:26:15.717Z,1017.83
2023-06-23T10:27:14.167Z,1017.83
2023-06-23T10:28:14.115Z,1017.82
2023-06-23T10:29:14.197Z,1017.82
2023-06-23T10:30:14.322Z,1017.80
2023-06-23T10:31:14.164Z,1017.80
2023-06-23T10:32:15.087Z,1017.80
2023-06-23T10:33:14.159Z,1017.81
2023-06-23T10:34:14.121Z,1017.78
2023-06-23T10:35:14.066Z,1017.80
2023-06-23T10:36:14.041Z,1017.79
2023-06-23T10:37:14.168Z,1017.76
2023-06-23T10:38:14.051Z,1017.78
2023-06-23T10:39:14.124Z,1017.80
2023-06-23T10:40:14.104Z,1017.78
2023-06-23T10:41:14.046Z,1017.73
2023-06-23T10:42:14.078Z,1017.76
2023-06-23T10:43:13.964Z,1017.77
2023-06-23T10:44:14.056Z,1017.78
2023-06-23T10:45:13.981Z,1017.77
2023-06-23T10:46:14.012Z,1017.78
2023-06-23T10:47:13.927Z,1017.78
2023-06-23T10:48:14.056Z,1017.79
2023-06-23T10:49:13.928Z,1017.83
2023-06-23T10:50:14.065Z,1017.87
2023-06-23T10:51:13.925Z,1017.84
2023-06-23T10:52:13.883Z,1017.84
2023-06-23T10:53:14.012Z,1017.82
2023-06-23T10:54:13.859Z,1017.81
2023-06-23T10:55:13.975Z,1017.82
2023-06-23T10:56:16.000Z,1017.83
2023-06-23T10:57:14.021Z,1017.87
2023-06-23T10:58:13.847Z,1017.87
2023-06-23T10:59:13.781Z,1017.88
2023-06-23T11:00:13.805Z,1017.84
2023-06-23T11:01:13.903Z,1017.87
2023-06-23T11:02:13.808Z,1017.85
2023-06-23T11:03:13.921Z,1017.84
2023-06-23T11:04:13.762Z,1017.84
2023-06-23T11:05:13.977Z,1017.84
2023-06-23T11:06:14.062Z,1017.84
2023-06-23T11:07:13.759Z,1017.85
2023-06-23T11:08:13.708Z,1017.87
2023-06-23T11:09:13.803Z,1017.86
2023-06-23T11:10:13.782Z,1017.83
2023-06-23T11:11:13.861Z,1017.85
2023-06-23T11:12:13.807Z,1017.88
2023-06-23T11:13:13.968Z,1017.89
2023-06-23T11:14:13.798Z,1017.88
2023-06-23T11:15:13.803Z,1017.90
2023-06-23T11:16:13.674Z,1017.90
2023-06-23T11:17:13.763Z,1017.94
2023-06-23T11:18:14.079Z,1017.92
2023-06-23T11:19:13.739Z,1017.89
2023-06-23T11:20:13.896Z,1017.87
2023-06-23T11:21:13.618Z,1017.88
2023-06-23T11:22:13.599Z,1017.85
2023-06-23T11:23:14.184Z,1017.86
2023-06-23T11:24:13.683Z,1017.83
2023-06-23T11:25:13.697Z,1017.87
2023-06-23T11:26:13.666Z,1017.93
2023-06-23T11:27:13.723Z,1017.91
2023-06-23T11:28:13.537Z,1017.92
2023-06-23T11:29:13.733Z,1017.92
2023-06-23T11:30:13.533Z,1017.91
2023-06-23T11:31:13.786Z,1017.95
2023-06-23T11:32:13.659Z,1017.92
2023-06-23T11:33:13.582Z,1017.90
2023-06-23T11:34:13.589Z,1017.91
2023-06-23T11:35:13.970Z,1017.93
2023-06-23T11:36:13.576Z,1017.92
2023-06-23T11:37:13.517Z,1017.94
2023-06-23T11:38:13.562Z,1017.95
2023-06-23T11:39:13.431Z,1017.94
2023-06-23T11:40:13.430Z,1017.94
2023-06-23T11:41:13.571Z,1017.94
2023-06-23T11:42:13.450Z,1017.95
2023-06-23T11:43:24.864Z,1017.96
2023-06-23T11:44:13.798Z,1017.99
2023-06-23T11:45:13.654Z,1018.00
2023-06-23T11:46:13.432Z,1018.01
2023-06-23T11:47:13.330Z,1018.03
2023-06-23T11:48:13.427Z,1018.02
2023-06-23T11:49:13.348Z,1018.01
2023-06-23T11:50:13.427Z,1018.00
2023-06-23T11:51:13.331Z,1017.98
2023-06-23T11:52:13.364Z,1017.99
2023-06-23T11:53:13.351Z,1018.00
2023-06-23T11:54:13.254Z,1017.99
2023-06-23T11:55:13.228Z,1018.01
2023-06-23T11:56:13.206Z,1018.01
2023-06-23T11:57:13.289Z,1018.01
2023-06-23T11:58:13.244Z,1018.01
2023-06-23T11:59:13.280Z,1018.01
2023-06-23T12:00:13.182Z,1018.01
2023-06-23T12:01:13.152Z,1018.03
2023-06-23T12:02:13.171Z,1018.03
2023-06-23T12:03:13.190Z,1018.02
2023-06-23T12:04:13.266Z,1018.03
2023-06-23T12:05:13.277Z,1018.05
2023-06-23T12:06:13.119Z,1018.05
2023-06-23T12:07:13.134Z,1018.07
2023-06-23T12:08:13.098Z,1018.06
2023-06-23T12:09:13.135Z,1018.07
2023-06-23T12:10:13.136Z,1018.06
2023-06-23T12:11:13.097Z,1018.06
2023-06-23T12:12:16.067Z,1018.05
2023-06-23T12:13:13.113Z,1018.05
2023-06-23T12:14:13.038Z,1018.01
2023-06-23T12:15:13.202Z,1018.09
2023-06-23T12:16:13.042Z,1018.10
2023-06-23T12:17:13.294Z,1018.08